Chance, Maryland
Current Conditions -  °F | °C
As of 7:54 AM on Thursday 27 Nov 2014 (Local Time) from KSBY Reporting Station
Haze Haze  
Wind Chill: 37°   Ceiling: Unl
Heat Index: 37°   Visibility: 5mi
Dew Point: 33°   Wind: 0mph
Humidity: 86%   Direction: NA
Pressure: 30.04"   Gusts: NA
Location:  38.17°N, 75.94°W
Report Text: KSBY 271254Z 00000KT 5SM BR CLR 03/01 A3004 RMK AO2 SLP176 T00280006
Loading
Personal Weather Stations






























Interactive Weather Map New forecast layout! Learn more

10-Day Weather Forecast

Advertisements
Track Severe Weather on mobile